createdAt,value
2023-02-16T00:01:21.141Z,41.70
2023-02-16T00:03:49.203Z,38.63
2023-02-16T00:06:16.419Z,40.58
2023-02-16T00:08:48.838Z,40.30
2023-02-16T00:11:50.626Z,48.90
2023-02-16T00:14:19.658Z,40.85
2023-02-16T00:16:46.644Z,37.60
2023-02-16T00:19:50.937Z,40.78
2023-02-16T00:22:17.907Z,41.80
2023-02-16T00:24:45.245Z,41.22
2023-02-16T00:27:18.461Z,42.38
2023-02-16T00:29:47.361Z,40.38
2023-02-16T00:32:15.065Z,41.75
2023-02-16T00:34:44.826Z,40.28
2023-02-16T00:37:15.784Z,38.33
2023-02-16T00:39:44.398Z,43.60
2023-02-16T00:42:18.564Z,44.92
2023-02-16T00:44:53.642Z,40.08
2023-02-16T00:47:41.816Z,39.35
2023-02-16T00:50:22.605Z,34.70
2023-02-16T00:52:52.121Z,37.42
2023-02-16T00:55:22.704Z,41.10
2023-02-16T00:58:13.225Z,44.50
2023-02-16T01:00:48.502Z,40.17
2023-02-16T01:03:23.218Z,37.78
2023-02-16T01:08:56.274Z,36.60
2023-02-16T01:11:24.186Z,39.33
2023-02-16T01:13:52.800Z,35.92
2023-02-16T01:16:25.777Z,40.00
2023-02-16T01:18:53.669Z,39.67
2023-02-16T01:21:22.032Z,41.38
2023-02-16T01:23:49.591Z,41.85
2023-02-16T01:26:19.791Z,37.88
2023-02-16T01:28:47.926Z,41.20
2023-02-16T01:31:20.755Z,42.22
2023-02-16T01:33:47.885Z,43.55
2023-02-16T01:36:35.253Z,42.60
2023-02-16T01:39:03.174Z,53.50
2023-02-16T01:42:02.913Z,56.15
2023-02-16T01:44:49.678Z,41.15
2023-02-16T01:47:37.811Z,36.47
2023-02-16T01:50:26.480Z,39.33
2023-02-16T01:53:13.984Z,38.08
2023-02-16T01:55:45.092Z,42.28
2023-02-16T01:58:24.677Z,35.85
2023-02-16T02:00:51.777Z,39.47
2023-02-16T02:03:48.404Z,39.70
2023-02-16T02:06:20.930Z,44.00
2023-02-16T02:08:59.097Z,41.70
2023-02-16T02:11:33.331Z,41.28
2023-02-16T02:14:30.227Z,45.50
2023-02-16T02:17:00.776Z,38.65
2023-02-16T02:19:38.770Z,42.67
2023-02-16T02:26:14.690Z,41.53
2023-02-16T02:29:03.224Z,46.55
2023-02-16T02:32:17.557Z,42.08
2023-02-16T02:35:07.280Z,41.47
2023-02-16T02:38:05.324Z,44.42
2023-02-16T02:41:01.253Z,44.53
2023-02-16T02:43:52.782Z,44.25
2023-02-16T02:46:26.847Z,47.28
2023-02-16T02:48:54.592Z,34.70
2023-02-16T02:51:34.036Z,42.97
2023-02-16T02:57:32.759Z,45.30
2023-02-16T03:00:41.797Z,48.38
2023-02-16T03:03:27.844Z,46.00
2023-02-16T03:06:00.140Z,45.53
2023-02-16T03:08:30.236Z,48.10
2023-02-16T03:11:29.207Z,45.72
2023-02-16T03:14:00.696Z,41.92
2023-02-16T03:16:35.022Z,42.10
2023-02-16T03:19:23.039Z,47.33
2023-02-16T03:22:09.561Z,44.95
2023-02-16T03:24:55.063Z,47.50
2023-02-16T03:27:47.988Z,49.55
2023-02-16T03:30:17.199Z,45.35
2023-02-16T03:32:45.795Z,54.33
2023-02-16T03:35:13.066Z,51.05
2023-02-16T03:37:43.568Z,49.85
2023-02-16T03:40:29.044Z,48.70
2023-02-16T03:42:58.962Z,55.00
2023-02-16T03:45:26.580Z,48.47
2023-02-16T03:47:54.719Z,48.97
2023-02-16T03:50:22.285Z,48.13
2023-02-16T03:52:49.806Z,49.42
2023-02-16T03:55:16.910Z,52.17
2023-02-16T03:57:44.377Z,47.03
2023-02-16T04:00:11.921Z,46.38
2023-02-16T04:02:42.197Z,44.13
2023-02-16T04:05:09.282Z,44.58
2023-02-16T04:07:36.633Z,46.67
2023-02-16T04:10:03.837Z,48.13
2023-02-16T04:12:37.182Z,58.47
2023-02-16T04:15:12.671Z,153.68
2023-02-16T04:17:40.308Z,151.18
2023-02-16T04:20:10.668Z,60.42
2023-02-16T04:22:38.220Z,58.85
2023-02-16T04:25:05.571Z,56.20
2023-02-16T04:27:33.472Z,268.98
2023-02-16T04:30:00.582Z,169.00
2023-02-16T04:32:27.910Z,63.83
2023-02-16T04:34:54.888Z,82.30
2023-02-16T04:37:22.218Z,231.88
2023-02-16T04:39:49.243Z,62.17
2023-02-16T04:42:16.605Z,92.70
2023-02-16T04:44:45.973Z,89.30
2023-02-16T04:47:13.724Z,66.05
2023-02-16T04:49:40.751Z,63.30
2023-02-16T04:52:08.130Z,53.60
2023-02-16T04:54:35.560Z,54.13
2023-02-16T04:57:05.738Z,59.90
2023-02-16T04:59:35.387Z,54.67
2023-02-16T05:02:02.953Z,51.03
2023-02-16T05:04:29.971Z,53.08
2023-02-16T05:06:57.688Z,46.15
2023-02-16T05:09:25.186Z,48.83
2023-02-16T05:12:11.404Z,61.03
2023-02-16T05:14:47.518Z,49.97
2023-02-16T05:17:15.924Z,50.88
2023-02-16T05:19:45.617Z,56.38
2023-02-16T05:22:16.315Z,54.63
2023-02-16T05:24:45.864Z,52.85
2023-02-16T05:27:20.448Z,55.78
2023-02-16T05:29:47.937Z,56.80
2023-02-16T05:32:15.774Z,60.90
2023-02-16T05:34:44.561Z,58.65
2023-02-16T05:37:13.264Z,63.38
2023-02-16T05:39:40.829Z,60.90
2023-02-16T05:42:08.624Z,55.38
2023-02-16T05:44:36.968Z,57.72
2023-02-16T05:47:04.820Z,48.13
2023-02-16T05:49:32.040Z,47.25
2023-02-16T05:51:59.374Z,60.40
2023-02-16T05:54:29.612Z,80.30
2023-02-16T05:56:57.344Z,82.78
2023-02-16T05:59:24.644Z,64.63
2023-02-16T06:01:52.710Z,76.40
2023-02-16T06:04:21.268Z,73.20
2023-02-16T06:06:48.709Z,68.57
2023-02-16T06:09:15.793Z,64.63
2023-02-16T06:11:43.249Z,61.35
2023-02-16T06:14:11.961Z,58.33
2023-02-16T06:16:43.098Z,63.03
2023-02-16T06:19:11.156Z,69.95
2023-02-16T06:21:41.711Z,54.15
2023-02-16T06:24:10.354Z,61.10
2023-02-16T06:26:37.824Z,57.15
2023-02-16T06:29:05.816Z,57.67
2023-02-16T06:31:36.208Z,61.00
2023-02-16T06:34:04.423Z,55.45
2023-02-16T06:36:32.181Z,77.72
2023-02-16T06:38:59.556Z,55.40
2023-02-16T06:41:35.717Z,58.20
2023-02-16T06:44:05.887Z,56.90
2023-02-16T06:46:33.509Z,57.85
2023-02-16T06:49:01.283Z,67.60
2023-02-16T06:51:29.058Z,51.90
2023-02-16T06:53:56.545Z,61.13
2023-02-16T06:56:24.383Z,56.80
2023-02-16T06:58:51.558Z,58.03
2023-02-16T07:01:23.092Z,60.95
2023-02-16T07:03:55.547Z,56.08
2023-02-16T07:06:25.182Z,56.58
2023-02-16T07:08:53.098Z,68.32
2023-02-16T07:11:21.565Z,63.67
2023-02-16T07:13:48.694Z,80.32
2023-02-16T07:16:16.140Z,76.70
2023-02-16T07:18:43.679Z,66.72
2023-02-16T07:21:11.848Z,80.95
2023-02-16T07:23:39.049Z,73.32
2023-02-16T07:26:06.301Z,74.15
2023-02-16T07:28:33.291Z,82.00
2023-02-16T07:31:07.792Z,92.40
2023-02-16T07:33:35.092Z,76.13
2023-02-16T07:36:02.509Z,150.18
2023-02-16T07:38:30.830Z,78.50
2023-02-16T07:40:58.357Z,90.78
2023-02-16T07:43:26.259Z,79.25
2023-02-16T07:45:54.120Z,78.05
2023-02-16T07:48:21.565Z,82.70
2023-02-16T07:50:48.853Z,75.57
2023-02-16T07:53:16.326Z,67.72
2023-02-16T07:55:45.367Z,77.00
2023-02-16T07:58:27.503Z,69.00
2023-02-16T08:01:08.231Z,84.20
2023-02-16T08:03:35.381Z,69.80
2023-02-16T08:06:03.977Z,75.88
2023-02-16T08:08:32.473Z,81.03
2023-02-16T08:10:59.958Z,58.58
2023-02-16T08:13:26.945Z,101.30
2023-02-16T08:15:54.274Z,83.68
2023-02-16T08:18:21.401Z,65.53
2023-02-16T08:21:03.277Z,64.78
2023-02-16T08:23:31.804Z,71.32
2023-02-16T08:25:59.589Z,67.38
2023-02-16T08:28:28.900Z,71.47
2023-02-16T08:30:56.678Z,71.70
2023-02-16T08:33:23.834Z,84.90
2023-02-16T08:35:51.118Z,62.38
2023-02-16T08:38:18.185Z,56.28
2023-02-16T08:40:50.190Z,60.97
2023-02-16T08:43:19.294Z,67.32
2023-02-16T08:45:47.715Z,72.78
2023-02-16T08:48:16.750Z,63.80
2023-02-16T08:50:47.315Z,64.78
2023-02-16T08:53:15.428Z,60.90
2023-02-16T08:55:42.923Z,63.67
2023-02-16T08:58:09.966Z,66.03
2023-02-16T09:00:38.484Z,62.55
2023-02-16T09:03:06.983Z,65.20
2023-02-16T09:05:34.315Z,61.35
2023-02-16T09:08:01.403Z,67.55
2023-02-16T09:10:29.091Z,65.03
2023-02-16T09:12:56.093Z,67.30
2023-02-16T09:15:24.063Z,67.82
2023-02-16T09:17:51.533Z,62.40
2023-02-16T09:20:20.505Z,76.20
2023-02-16T09:22:47.730Z,62.00
2023-02-16T09:25:16.896Z,70.07
2023-02-16T09:27:44.489Z,74.15
2023-02-16T09:30:12.617Z,99.80
2023-02-16T09:32:40.657Z,91.55
2023-02-16T09:35:08.098Z,78.10
2023-02-16T09:37:35.015Z,73.20
2023-02-16T09:40:02.352Z,189.68
2023-02-16T09:42:56.839Z,159.43
2023-02-16T09:45:26.816Z,110.10
2023-02-16T09:47:59.079Z,123.45
2023-02-16T09:50:50.722Z,92.00
2023-02-16T09:53:24.428Z,111.03
2023-02-16T09:56:10.043Z,132.60
2023-02-16T09:58:46.660Z,81.13
2023-02-16T10:01:34.754Z,84.95
2023-02-16T10:04:29.973Z,109.38
2023-02-16T10:07:20.363Z,90.15
2023-02-16T10:09:51.636Z,76.18
2023-02-16T10:12:25.032Z,64.78
2023-02-16T10:14:58.000Z,65.22
2023-02-16T10:17:34.038Z,67.90
2023-02-16T10:20:16.353Z,62.30
2023-02-16T10:23:20.418Z,67.88
2023-02-16T10:25:57.899Z,59.65
2023-02-16T10:28:46.798Z,68.85
2023-02-16T10:31:23.125Z,65.15
2023-02-16T10:33:59.807Z,64.18
2023-02-16T10:36:27.373Z,66.10
2023-02-16T10:39:19.613Z,69.80
2023-02-16T10:42:09.809Z,60.97
2023-02-16T10:44:43.268Z,64.78
2023-02-16T10:47:36.710Z,67.15
2023-02-16T10:50:15.727Z,63.78
2023-02-16T10:52:43.939Z,59.55
2023-02-16T10:55:13.026Z,62.17
2023-02-16T10:57:40.297Z,70.63
2023-02-16T11:00:12.283Z,68.63
2023-02-16T11:02:43.724Z,65.70
2023-02-16T11:05:26.319Z,67.50
2023-02-16T11:07:57.107Z,62.60
2023-02-16T11:10:48.830Z,71.32
2023-02-16T11:13:34.355Z,72.88
2023-02-16T11:16:14.168Z,74.05
2023-02-16T11:18:45.776Z,67.55
2023-02-16T11:21:13.383Z,82.07
2023-02-16T11:23:42.588Z,66.47
2023-02-16T11:26:10.187Z,66.20
2023-02-16T11:28:48.676Z,66.70
2023-02-16T11:31:21.410Z,66.97
2023-02-16T11:34:01.415Z,69.45
2023-02-16T11:36:39.153Z,123.55
2023-02-16T11:39:17.967Z,82.13
2023-02-16T11:41:56.821Z,116.63
2023-02-16T11:44:32.695Z,86.18
2023-02-16T11:47:04.149Z,116.38
2023-02-16T11:49:42.133Z,105.75
2023-02-16T11:52:24.180Z,91.65
2023-02-16T11:54:54.314Z,171.82
2023-02-16T11:57:36.823Z,107.10
2023-02-16T12:00:24.941Z,87.75
2023-02-16T12:03:21.866Z,86.57
2023-02-16T12:06:13.571Z,95.95
2023-02-16T12:08:55.223Z,74.55
2023-02-16T12:11:42.401Z,74.75
2023-02-16T12:14:30.566Z,83.82
2023-02-16T12:17:12.954Z,81.30
2023-02-16T12:19:41.913Z,82.03
2023-02-16T12:22:33.816Z,79.75
2023-02-16T12:25:25.722Z,81.28
2023-02-16T12:28:00.620Z,63.50
2023-02-16T12:30:58.892Z,83.85
2023-02-16T12:33:53.964Z,55.83
2023-02-16T12:36:33.084Z,57.70
2023-02-16T12:39:14.645Z,56.83
2023-02-16T12:41:53.744Z,61.38
2023-02-16T12:44:31.939Z,67.97
2023-02-16T12:47:08.150Z,69.85
2023-02-16T12:50:00.088Z,69.13
2023-02-16T12:52:46.409Z,71.35
2023-02-16T12:55:31.206Z,65.25
2023-02-16T12:58:02.717Z,50.70
2023-02-16T13:00:47.871Z,49.55
2023-02-16T13:03:22.523Z,56.53
2023-02-16T13:06:00.567Z,53.72
2023-02-16T13:08:39.641Z,101.30
2023-02-16T13:11:20.622Z,103.13
2023-02-16T13:13:49.646Z,68.93
2023-02-16T13:16:29.546Z,60.00
2023-02-16T13:18:58.783Z,62.53
2023-02-16T13:21:49.026Z,76.53
2023-02-16T13:24:46.193Z,50.38
2023-02-16T13:27:26.704Z,117.72
2023-02-16T13:30:05.878Z,79.70
2023-02-16T13:32:54.985Z,93.72
2023-02-16T13:35:47.199Z,125.10
2023-02-16T13:38:43.622Z,115.50
2023-02-16T13:41:33.544Z,77.97
2023-02-16T13:44:11.009Z,73.32
2023-02-16T13:46:43.212Z,67.40
2023-02-16T13:49:46.448Z,64.65
2023-02-16T13:52:42.366Z,63.45
2023-02-16T13:55:24.855Z,52.67
2023-02-16T13:58:08.155Z,55.40
2023-02-16T14:00:35.586Z,60.70
2023-02-16T14:03:13.392Z,55.85
2023-02-16T14:05:43.160Z,54.47
2023-02-16T14:08:28.264Z,64.90
2023-02-16T14:10:55.945Z,58.55
2023-02-16T14:13:35.298Z,48.47
2023-02-16T14:16:17.282Z,62.33
2023-02-16T14:19:05.900Z,51.88
2023-02-16T14:21:41.652Z,50.22
2023-02-16T14:24:24.831Z,62.20
2023-02-16T14:27:01.581Z,55.63
2023-02-16T14:29:44.037Z,56.25
2023-02-16T14:32:31.741Z,55.25
2023-02-16T14:35:18.153Z,52.35
2023-02-16T14:38:26.271Z,53.83
2023-02-16T14:40:56.716Z,55.85
2023-02-16T14:43:47.383Z,58.88
2023-02-16T14:46:39.667Z,53.40
2023-02-16T14:49:27.018Z,57.60
2023-02-16T14:51:57.410Z,71.28
2023-02-16T14:54:41.917Z,63.35
2023-02-16T14:57:15.656Z,104.57
2023-02-16T14:59:57.237Z,101.97
2023-02-16T15:02:27.429Z,78.57
2023-02-16T15:04:54.506Z,66.03
2023-02-16T15:07:23.790Z,62.03
2023-02-16T15:09:57.292Z,67.45
2023-02-16T15:12:40.529Z,67.05
2023-02-16T15:15:13.472Z,57.53
2023-02-16T15:17:49.600Z,62.65
2023-02-16T15:20:36.909Z,64.78
2023-02-16T15:23:26.234Z,87.60
2023-02-16T15:26:04.459Z,77.07
2023-02-16T15:28:39.926Z,70.07
2023-02-16T15:33:38.641Z,63.92
2023-02-16T15:36:10.632Z,67.97
2023-02-16T15:38:40.804Z,88.25
2023-02-16T15:41:15.321Z,82.78
2023-02-16T15:43:50.804Z,111.97
2023-02-16T15:46:43.657Z,94.63
2023-02-16T15:49:25.223Z,108.63
2023-02-16T15:51:55.499Z,87.50
2023-02-16T15:54:30.840Z,72.78
2023-02-16T15:57:32.145Z,77.75
2023-02-16T16:00:21.975Z,73.40
2023-02-16T16:02:59.157Z,96.60
2023-02-16T16:05:39.816Z,107.15
2023-02-16T16:08:08.561Z,99.70
2023-02-16T16:10:39.734Z,78.95
2023-02-16T16:13:22.853Z,80.60
2023-02-16T16:15:51.904Z,69.72
2023-02-16T16:18:51.050Z,75.13
2023-02-16T16:21:22.508Z,81.13
2023-02-16T16:23:54.728Z,73.75
2023-02-16T16:26:28.698Z,76.32
2023-02-16T16:28:58.081Z,70.47
2023-02-16T16:31:26.324Z,70.22
2023-02-16T16:33:59.188Z,74.22
2023-02-16T16:36:41.157Z,75.00
2023-02-16T16:39:14.324Z,99.28
2023-02-16T16:41:46.404Z,106.90
2023-02-16T16:44:48.365Z,140.90
2023-02-16T16:47:33.567Z,151.98
2023-02-16T16:50:09.718Z,125.50
2023-02-16T16:52:46.868Z,113.57
2023-02-16T16:55:26.806Z,119.40
2023-02-16T16:58:01.129Z,96.25
2023-02-16T17:00:34.502Z,90.00
2023-02-16T17:03:06.957Z,92.75
2023-02-16T17:05:35.992Z,80.00
2023-02-16T17:08:03.424Z,76.65
2023-02-16T17:10:30.912Z,87.60
2023-02-16T17:12:59.805Z,84.10
2023-02-16T17:16:09.641Z,78.35
2023-02-16T17:18:37.450Z,73.53
2023-02-16T17:21:08.321Z,74.07
2023-02-16T17:23:36.010Z,85.10
2023-02-16T17:26:06.981Z,100.25
2023-02-16T17:28:36.963Z,90.65
2023-02-16T17:31:06.057Z,96.47
2023-02-16T17:33:33.833Z,94.30
2023-02-16T17:36:06.036Z,101.70
2023-02-16T17:38:34.541Z,104.88
2023-02-16T17:41:01.608Z,118.15
2023-02-16T17:43:29.162Z,129.80
2023-02-16T17:46:01.168Z,123.38
2023-02-16T17:48:30.450Z,140.73
2023-02-16T17:51:00.593Z,153.02
2023-02-16T17:53:31.060Z,113.65
2023-02-16T17:55:58.831Z,103.68
2023-02-16T17:58:26.624Z,117.80
2023-02-16T18:00:54.456Z,118.35
2023-02-16T18:03:23.036Z,114.95
2023-02-16T18:05:50.675Z,114.57
2023-02-16T18:08:18.276Z,114.70
2023-02-16T18:10:47.962Z,136.23
2023-02-16T18:13:16.294Z,162.70
2023-02-16T18:15:47.442Z,208.25
2023-02-16T18:18:16.711Z,194.40
2023-02-16T18:20:46.236Z,189.93
2023-02-16T18:23:14.610Z,182.35
2023-02-16T18:25:44.142Z,191.90
2023-02-16T18:28:18.381Z,180.95
2023-02-16T18:30:48.240Z,137.95
2023-02-16T18:33:15.873Z,162.05
2023-02-16T18:35:43.206Z,150.20
2023-02-16T18:38:10.790Z,127.63
2023-02-16T18:40:38.008Z,157.95
2023-02-16T18:43:07.684Z,169.13
2023-02-16T18:45:37.451Z,144.38
2023-02-16T18:48:05.529Z,126.85
2023-02-16T18:50:36.029Z,144.82
2023-02-16T18:53:07.030Z,143.32
2023-02-16T18:55:35.112Z,159.13
2023-02-16T18:58:08.083Z,139.77
2023-02-16T19:00:38.343Z,125.60
2023-02-16T19:03:07.398Z,166.48
2023-02-16T19:05:35.308Z,178.13
2023-02-16T19:08:02.891Z,138.27
2023-02-16T19:10:30.292Z,135.02
2023-02-16T19:13:01.952Z,110.80
2023-02-16T19:15:29.384Z,141.68
2023-02-16T19:17:56.882Z,105.75
2023-02-16T19:20:24.389Z,107.47
2023-02-16T19:22:54.602Z,89.78
2023-02-16T19:25:23.272Z,91.68
2023-02-16T19:27:52.435Z,90.55
2023-02-16T19:30:21.743Z,90.15
2023-02-16T19:32:49.617Z,89.93
2023-02-16T19:35:17.918Z,76.60
2023-02-16T19:37:48.363Z,86.18
2023-02-16T19:40:16.461Z,89.10
2023-02-16T19:42:46.206Z,80.18
2023-02-16T19:45:14.445Z,81.57
2023-02-16T19:47:41.843Z,71.28
2023-02-16T19:50:09.249Z,66.80
2023-02-16T19:52:36.667Z,83.55
2023-02-16T19:55:04.135Z,70.85
2023-02-16T19:57:32.008Z,65.95
2023-02-16T19:59:59.176Z,68.35
2023-02-16T20:02:27.049Z,61.40
2023-02-16T20:04:54.902Z,65.15
2023-02-16T20:07:22.346Z,64.75
2023-02-16T20:09:49.363Z,60.88
2023-02-16T20:12:16.769Z,58.60
2023-02-16T20:14:43.838Z,56.00
2023-02-16T20:17:11.594Z,58.42
2023-02-16T20:19:39.700Z,66.75
2023-02-16T20:22:07.136Z,125.55
2023-02-16T20:24:34.395Z,122.68
2023-02-16T20:27:04.549Z,75.47
2023-02-16T20:29:32.243Z,60.92
2023-02-16T20:31:59.936Z,62.40
2023-02-16T20:34:27.714Z,59.05
2023-02-16T20:36:55.574Z,66.72
2023-02-16T20:39:23.316Z,58.42
2023-02-16T20:41:51.123Z,55.28
2023-02-16T20:44:19.209Z,55.47
2023-02-16T20:46:51.269Z,56.08
2023-02-16T20:49:19.262Z,58.92
2023-02-16T20:51:46.979Z,62.83
2023-02-16T20:54:14.188Z,62.83
2023-02-16T20:56:41.740Z,55.20
2023-02-16T20:59:11.985Z,59.08
2023-02-16T21:01:51.949Z,54.42
2023-02-16T21:04:20.147Z,56.42
2023-02-16T21:06:47.788Z,54.75
2023-02-16T21:09:15.458Z,53.92
2023-02-16T21:11:43.806Z,56.15
2023-02-16T21:14:13.140Z,59.85
2023-02-16T21:16:41.140Z,57.33
2023-02-16T21:19:22.118Z,64.45
2023-02-16T21:21:51.294Z,60.92
2023-02-16T21:24:18.746Z,59.95
2023-02-16T21:26:46.569Z,58.08
2023-02-16T21:29:14.019Z,71.00
2023-02-16T21:31:41.495Z,83.97
2023-02-16T21:34:08.962Z,74.72
2023-02-16T21:36:37.694Z,75.53
2023-02-16T21:39:05.025Z,72.35
2023-02-16T21:41:32.613Z,64.03
2023-02-16T21:44:15.472Z,58.10
2023-02-16T21:46:45.813Z,57.92
2023-02-16T21:49:17.208Z,57.42
2023-02-16T21:51:45.800Z,57.05
2023-02-16T21:54:19.175Z,55.88
2023-02-16T21:56:53.005Z,57.95
2023-02-16T21:59:22.760Z,60.22
2023-02-16T22:01:51.997Z,61.47
2023-02-16T22:04:21.806Z,59.15
2023-02-16T22:06:50.474Z,61.08
2023-02-16T22:09:20.799Z,58.20
2023-02-16T22:11:49.133Z,62.25
2023-02-16T22:14:16.508Z,63.92
2023-02-16T22:16:46.192Z,63.80
2023-02-16T22:19:18.281Z,71.38
2023-02-16T22:21:49.519Z,69.60
2023-02-16T22:24:18.593Z,60.88
2023-02-16T22:26:48.767Z,62.47
2023-02-16T22:29:16.284Z,62.13
2023-02-16T22:31:45.367Z,56.70
2023-02-16T22:34:15.354Z,57.70
2023-02-16T22:36:43.241Z,59.67
2023-02-16T22:39:13.142Z,53.70
2023-02-16T22:41:41.287Z,56.65
2023-02-16T22:44:10.660Z,58.30
2023-02-16T22:46:38.205Z,56.05
2023-02-16T22:49:06.414Z,56.47
2023-02-16T22:51:33.805Z,55.97
2023-02-16T22:54:01.872Z,54.22
2023-02-16T22:56:31.674Z,53.97
2023-02-16T22:58:59.681Z,54.42
2023-02-16T23:01:29.156Z,53.78
2023-02-16T23:03:58.189Z,53.17
2023-02-16T23:06:30.536Z,51.45
2023-02-16T23:09:06.148Z,49.63
2023-02-16T23:11:34.924Z,50.45
2023-02-16T23:14:02.722Z,47.97
2023-02-16T23:16:30.175Z,51.65
2023-02-16T23:18:59.354Z,49.92
2023-02-16T23:21:33.085Z,51.80
2023-02-16T23:24:00.614Z,49.83
2023-02-16T23:26:29.738Z,48.25
2023-02-16T23:28:58.934Z,49.55
2023-02-16T23:31:26.717Z,50.65
2023-02-16T23:33:56.806Z,52.10
2023-02-16T23:36:24.125Z,51.40
2023-02-16T23:38:51.454Z,49.97
2023-02-16T23:41:19.346Z,49.10
2023-02-16T23:43:46.298Z,52.42
2023-02-16T23:46:13.669Z,51.22
2023-02-16T23:48:40.797Z,50.30
2023-02-16T23:51:12.069Z,50.05
2023-02-16T23:53:39.504Z,47.25
2023-02-16T23:56:21.224Z,52.53
2023-02-16T23:58:49.079Z,50.67
